Upper Marlboro, MD (20773)

10:49 AM EST on December 18, 2014 (GMT -0500)
Marlboro Ridge | Change Station
CLOSE
Current Station
Personal Weather Station
Location: Upper Marlboro, MD
Elevation: 151 ft
Nearby Weather Stations

Elev 151 ft 38.83 °N, 76.81 °W | Updated 8 minutes ago

Partly Cloudy
Partly Cloudy
38.1 °F
Feels Like 36 °F
N
3.2
Wind Variable Wind from ESE

Today
High -- | Low -- °F
--% Chance of Precip.
Yesterday
High -- | Low -- °F
Precip. -- in
7:20 AM 4:47 PM
Waning Crescent, 14% visible
Pressure 30.18 in
Visibility 10.0 miles
Clouds Few 3900 ft
Windchill 36 °F
Dew Point 21 °F
Humidity 50%
Rainfall 0.00 in
Snow Depth Not available.
UV 2 out of 12
Pollen .10 out of 12
Air Quality Not available.
Flu Activity Not available.
METAR KADW 181458Z 31014KT 10SM FEW039 02/M07 A3017 RMK AO2A SLP220 T00251068 51014

More Conditions Fewer Conditions

Pressure 30.18 in
Visibility 10.0 miles
Clouds Few 3900 ft
Windchill 36 °F
Dew Point 21 °F
Humidity 50%
Rainfall 0.00 in
Snow Depth Not available.
UV 2 out of 12
Pollen .10 out of 12
Air Quality Not available.
Flu Activity Not available.
METAR KADW 181458Z 31014KT 10SM FEW039 02/M07 A3017 RMK AO2A SLP220 T00251068 51014

More Conditions Fewer Conditions

10-Day Weather Forecast

Almanac

Astronomy

Dec. 18, 2014 Rise Set
Actual Time
Civil Twilight
Nautical Twilight
Astronomical Twilight
Moon
Length of Visible Light
Length of Day
Tomorrow will be .
, % of the Moon is Illuminated

Today's Extremes

State Highs State Lows

Community

WunderPhotos

Upload Photos

1,778,947 photos uploaded!

WunderBlogs® & News

Nearby

Air Quality

  Air Quality AQ Index Pollutant
Not available.

Snow Depth

Station Depth Elevation

Earthquake Activity

City Distance Mag. Time & Date
Minimum magnitude displayed is 2.5.

Coastal Water Temperatures

Place Temperature

Nearby Weather Stations